createdAt,value
2023-07-25T00:00:53.728Z,152311.53
2023-07-25T00:03:19.936Z,152306.41
2023-07-25T00:05:46.180Z,152292.50
2023-07-25T00:08:12.371Z,152287.38
2023-07-25T00:10:38.665Z,152319.13
2023-07-25T00:13:04.948Z,152328.03
2023-07-25T00:15:31.209Z,152300.09
2023-07-25T00:17:57.539Z,152314.06
2023-07-25T00:20:23.815Z,152310.28
2023-07-25T00:22:50.154Z,152309.00
2023-07-25T00:25:16.415Z,152295.03
2023-07-25T00:27:42.686Z,152263.28
2023-07-25T00:30:08.929Z,152248.06
2023-07-25T00:32:35.285Z,152277.25
2023-07-25T00:35:01.530Z,152251.84
2023-07-25T00:37:27.768Z,152282.31
2023-07-25T00:39:53.988Z,152241.72
2023-07-25T00:42:20.259Z,152215.06
2023-07-25T00:44:46.530Z,152212.53
2023-07-25T00:47:12.799Z,152243.00
2023-07-25T00:49:39.007Z,152229.03
2023-07-25T00:52:05.231Z,152241.72
2023-07-25T00:54:31.476Z,152236.66
2023-07-25T00:56:57.738Z,152236.66
2023-07-25T00:59:23.933Z,152267.09
2023-07-25T01:01:50.242Z,152258.22
2023-07-25T01:04:16.471Z,152236.66
2023-07-25T01:06:42.697Z,152216.38
2023-07-25T01:09:08.928Z,152203.69
2023-07-25T01:11:35.193Z,152220.19
2023-07-25T01:14:01.448Z,152222.72
2023-07-25T01:16:27.700Z,152210.00
2023-07-25T01:18:53.994Z,152227.75
2023-07-25T01:21:20.441Z,152230.28
2023-07-25T01:23:46.649Z,152227.75
2023-07-25T01:26:12.927Z,152244.25
2023-07-25T01:28:39.148Z,152211.28
2023-07-25T01:31:05.383Z,152222.72
2023-07-25T01:33:31.691Z,152206.22
2023-07-25T01:35:57.971Z,152237.94
2023-07-25T01:38:24.655Z,152227.75
2023-07-25T01:40:50.893Z,152215.06
2023-07-25T01:43:17.151Z,152227.75
2023-07-25T01:45:43.477Z,152237.94
2023-07-25T01:48:09.732Z,152221.44
2023-07-25T01:50:35.931Z,152230.28
2023-07-25T01:53:02.148Z,152222.72
2023-07-25T01:55:28.427Z,152221.44
2023-07-25T01:57:54.676Z,152239.19
2023-07-25T02:00:20.906Z,152230.28
2023-07-25T02:02:47.206Z,152246.78
2023-07-25T02:05:13.506Z,152229.03
2023-07-25T02:07:39.836Z,152232.81
2023-07-25T02:10:06.103Z,152198.63
2023-07-25T02:12:32.485Z,152175.75
2023-07-25T02:14:58.732Z,152206.22
2023-07-25T02:17:24.991Z,152188.44
2023-07-25T02:19:51.441Z,152183.38
2023-07-25T02:22:17.796Z,152180.84
2023-07-25T02:24:44.039Z,152178.28
2023-07-25T02:27:10.276Z,152179.53
2023-07-25T02:29:36.481Z,152193.50
2023-07-25T02:32:02.709Z,152202.41
2023-07-25T02:34:28.992Z,152182.13
2023-07-25T02:36:55.270Z,152192.25
2023-07-25T02:39:21.549Z,152198.63
2023-07-25T02:41:47.741Z,152179.53
2023-07-25T02:44:13.999Z,152178.28
2023-07-25T02:46:40.298Z,152199.88
2023-07-25T02:49:06.599Z,152161.78
2023-07-25T02:51:33.106Z,152196.03
2023-07-25T02:53:59.639Z,152169.41
2023-07-25T02:56:25.824Z,152202.41
2023-07-25T02:58:52.094Z,152165.63
2023-07-25T03:01:19.055Z,152169.41
2023-07-25T03:03:45.301Z,152160.50
2023-07-25T03:06:11.540Z,152142.75
2023-07-25T03:08:37.750Z,152168.16
2023-07-25T03:11:03.989Z,152177.00
2023-07-25T03:13:31.720Z,152182.13
2023-07-25T03:15:57.903Z,152196.03
2023-07-25T03:18:24.159Z,152192.25
2023-07-25T03:20:50.436Z,152201.16
2023-07-25T03:23:16.733Z,152170.69
2023-07-25T03:25:42.984Z,152157.97
2023-07-25T03:28:09.210Z,152160.50
2023-07-25T03:30:35.556Z,152170.69
2023-07-25T03:33:01.829Z,152155.44
2023-07-25T03:35:28.107Z,152161.78
2023-07-25T03:37:54.376Z,152165.63
2023-07-25T03:40:20.604Z,152163.09
2023-07-25T03:42:46.867Z,152140.22
2023-07-25T03:45:13.076Z,152138.97
2023-07-25T03:47:39.396Z,152164.34
2023-07-25T03:50:05.733Z,152152.91
2023-07-25T03:52:32.036Z,152135.16
2023-07-25T03:54:58.253Z,152130.09
2023-07-25T03:57:24.493Z,152156.72
2023-07-25T03:59:50.681Z,152123.72
2023-07-25T04:02:16.954Z,152140.22
2023-07-25T04:04:43.360Z,152160.50
2023-07-25T04:07:09.656Z,152132.63
2023-07-25T04:09:35.875Z,152128.84
2023-07-25T04:12:02.103Z,152125.00
2023-07-25T04:14:28.332Z,152145.34
2023-07-25T04:16:54.557Z,152127.56
2023-07-25T04:19:20.831Z,152137.69
2023-07-25T04:21:47.192Z,152135.16
2023-07-25T04:24:13.715Z,152125.00
2023-07-25T04:26:40.029Z,152140.22
2023-07-25T04:29:06.391Z,152121.19
2023-07-25T04:31:32.899Z,152111.09
2023-07-25T04:33:59.583Z,152100.91
2023-07-25T04:36:25.919Z,152116.13
2023-07-25T04:38:52.200Z,152090.75
2023-07-25T04:41:18.424Z,152103.44
2023-07-25T04:43:44.693Z,152114.88
2023-07-25T04:46:10.908Z,152099.66
2023-07-25T04:48:37.227Z,152123.72
2023-07-25T04:51:03.493Z,152130.09
2023-07-25T04:53:31.707Z,152131.38
2023-07-25T04:55:57.907Z,152097.13
2023-07-25T04:58:24.149Z,152088.16
2023-07-25T05:00:50.358Z,152104.72
2023-07-25T05:03:16.623Z,152151.66
2023-07-25T05:05:43.071Z,152165.63
2023-07-25T05:08:09.336Z,152138.97
2023-07-25T05:10:35.613Z,152138.97
2023-07-25T05:13:01.870Z,152136.44
2023-07-25T05:15:28.127Z,152180.84
2023-07-25T05:17:54.397Z,152152.91
2023-07-25T05:20:20.682Z,152154.19
2023-07-25T05:22:47.534Z,152159.25
2023-07-25T05:25:13.760Z,152144.00
2023-07-25T05:27:39.999Z,152160.50
2023-07-25T05:30:06.284Z,152117.41
2023-07-25T05:32:33.822Z,152111.09
2023-07-25T05:35:01.023Z,152152.91
2023-07-25T05:37:27.278Z,152164.34
2023-07-25T05:39:53.476Z,152178.28
2023-07-25T05:42:19.761Z,152180.84
2023-07-25T05:44:45.993Z,152150.41
2023-07-25T05:47:12.222Z,152119.94
2023-07-25T05:49:38.419Z,152146.59
2023-07-25T05:52:04.647Z,152156.72
2023-07-25T05:54:30.922Z,152140.22
2023-07-25T05:56:57.171Z,152201.16
2023-07-25T05:59:23.421Z,152178.28
2023-07-25T06:01:49.674Z,152207.47
2023-07-25T06:04:15.893Z,152234.09
2023-07-25T06:06:42.080Z,152291.22
2023-07-25T06:09:08.296Z,152341.97
2023-07-25T06:11:34.748Z,152361.03
2023-07-25T06:14:01.052Z,152372.44
2023-07-25T06:16:27.384Z,152399.13
2023-07-25T06:18:53.648Z,152338.16
2023-07-25T06:21:19.921Z,152388.94
2023-07-25T06:23:46.194Z,152396.53
2023-07-25T06:26:12.442Z,152354.66
2023-07-25T06:28:38.706Z,152324.19
2023-07-25T06:31:05.046Z,152374.97
2023-07-25T06:33:31.350Z,152341.97
2023-07-25T06:35:57.641Z,152315.31
2023-07-25T06:38:23.834Z,152348.34
2023-07-25T06:40:50.103Z,152321.66
2023-07-25T06:43:16.342Z,152338.16
2023-07-25T06:45:42.541Z,152357.19
2023-07-25T06:48:08.780Z,152368.63
2023-07-25T06:50:34.984Z,152333.09
2023-07-25T06:53:01.205Z,152339.44
2023-07-25T06:55:27.456Z,152335.63
2023-07-25T06:57:53.737Z,152345.81
2023-07-25T07:00:20.024Z,152343.28
2023-07-25T07:02:46.340Z,152331.84
2023-07-25T07:05:23.843Z,152349.59
2023-07-25T07:07:56.048Z,152349.59
2023-07-25T07:10:22.298Z,152338.16
2023-07-25T07:12:48.554Z,152326.78
2023-07-25T07:15:14.792Z,152320.38
2023-07-25T07:17:41.007Z,152343.28
2023-07-25T07:20:07.287Z,152343.28
2023-07-25T07:22:33.512Z,152339.44
2023-07-25T07:24:59.712Z,152347.06
2023-07-25T07:27:25.949Z,152335.63
2023-07-25T07:29:52.173Z,152293.75
2023-07-25T07:32:18.423Z,152301.38
2023-07-25T07:34:44.750Z,152353.41
2023-07-25T07:37:11.081Z,152373.69
2023-07-25T07:39:37.284Z,152388.94
2023-07-25T07:42:03.510Z,152429.59
2023-07-25T07:44:29.706Z,152397.84
2023-07-25T07:46:55.926Z,152394.00
2023-07-25T07:49:22.139Z,152391.47
2023-07-25T07:52:05.049Z,152374.97
2023-07-25T07:54:34.609Z,152429.59
2023-07-25T07:57:00.987Z,152408.03
2023-07-25T07:59:27.252Z,152443.56
2023-07-25T08:01:53.576Z,152420.72
2023-07-25T08:04:20.049Z,152419.47
2023-07-25T08:06:46.330Z,152446.09
2023-07-25T08:09:12.991Z,152485.47
2023-07-25T08:11:39.233Z,152481.66
2023-07-25T08:14:05.514Z,152482.94
2023-07-25T08:16:31.860Z,152482.94
2023-07-25T08:18:58.190Z,152503.22
2023-07-25T08:21:24.488Z,152488.03
2023-07-25T08:23:50.738Z,152523.59
2023-07-25T08:26:16.976Z,152580.72
2023-07-25T08:28:43.274Z,152606.13
2023-07-25T08:31:09.512Z,152637.88
2023-07-25T08:33:35.726Z,152589.59
2023-07-25T08:36:02.033Z,152612.44
2023-07-25T08:38:28.307Z,152631.50
2023-07-25T08:40:54.566Z,152655.66
2023-07-25T08:43:20.853Z,152665.78
2023-07-25T08:45:47.093Z,152651.88
2023-07-25T08:48:13.457Z,152683.59
2023-07-25T08:50:39.804Z,152689.97
2023-07-25T08:53:06.024Z,152707.81
2023-07-25T08:55:32.240Z,152631.50
2023-07-25T08:57:58.476Z,152665.78
2023-07-25T09:00:24.715Z,152698.88
2023-07-25T09:02:53.912Z,152731.94
2023-07-25T09:05:20.546Z,152693.75
2023-07-25T09:07:46.813Z,152660.72
2023-07-25T09:10:13.049Z,152653.13
2023-07-25T09:12:39.272Z,152691.22
2023-07-25T09:15:05.547Z,152689.97
2023-07-25T09:17:31.887Z,152698.88
2023-07-25T09:19:58.173Z,152702.69
2023-07-25T09:22:24.403Z,152667.06
2023-07-25T09:24:50.707Z,152691.22
2023-07-25T09:27:17.042Z,152692.50
2023-07-25T09:29:43.320Z,152734.47
2023-07-25T09:32:09.580Z,152758.63
2023-07-25T09:34:37.937Z,152743.38
2023-07-25T09:37:05.480Z,152750.97
2023-07-25T09:39:32.382Z,152739.53
2023-07-25T09:41:58.710Z,152753.50
2023-07-25T09:44:24.987Z,152723.06
2023-07-25T09:46:51.205Z,152682.31
2023-07-25T09:49:17.448Z,152749.72
2023-07-25T09:51:43.684Z,152809.44
2023-07-25T09:54:09.932Z,152824.69
2023-07-25T09:56:37.966Z,152862.81
2023-07-25T09:59:07.615Z,152920.00
2023-07-25T10:01:34.393Z,152969.63
2023-07-25T10:04:00.946Z,152998.91
2023-07-25T10:06:27.198Z,152992.50
2023-07-25T10:08:53.490Z,152961.97
2023-07-25T10:11:19.745Z,152946.72
2023-07-25T10:13:45.941Z,152969.63
2023-07-25T10:16:12.248Z,152918.72
2023-07-25T10:18:38.637Z,152942.91
2023-07-25T10:21:04.984Z,152960.72
2023-07-25T10:23:31.791Z,152922.56
2023-07-25T10:25:58.102Z,152954.31
2023-07-25T10:28:24.390Z,152934.00
2023-07-25T10:30:50.623Z,152959.44
2023-07-25T10:33:16.856Z,152967.09
2023-07-25T10:35:43.104Z,152967.09
2023-07-25T10:38:09.821Z,152983.63
2023-07-25T10:40:36.249Z,152961.97
2023-07-25T10:43:07.430Z,153000.16
2023-07-25T10:45:34.215Z,153025.56
2023-07-25T10:48:00.668Z,153063.72
2023-07-25T10:50:26.941Z,153169.28
2023-07-25T10:52:53.205Z,153262.19
2023-07-25T10:55:19.463Z,153322.03
2023-07-25T10:57:45.812Z,153417.47
2023-07-25T11:00:12.063Z,153528.28
2023-07-25T11:02:38.368Z,153501.56
2023-07-25T11:05:04.630Z,153537.22
2023-07-25T11:07:30.879Z,153385.63
2023-07-25T11:09:57.134Z,153209.97
2023-07-25T11:12:23.355Z,153212.56
2023-07-25T11:14:49.630Z,153161.66
2023-07-25T11:17:15.960Z,153129.88
2023-07-25T11:19:42.240Z,153100.59
2023-07-25T11:22:08.483Z,153034.50
2023-07-25T11:24:34.772Z,152925.09
2023-07-25T11:27:01.048Z,152903.50
2023-07-25T11:29:27.287Z,152974.72
2023-07-25T11:31:53.520Z,152983.63
2023-07-25T11:34:19.793Z,153024.31
2023-07-25T11:36:46.047Z,153059.91
2023-07-25T11:39:12.307Z,153122.25
2023-07-25T11:41:38.631Z,153189.63
2023-07-25T11:44:04.923Z,153216.38
2023-07-25T11:46:33.299Z,153268.59
2023-07-25T11:48:59.523Z,153246.97
2023-07-25T11:51:25.779Z,153320.75
2023-07-25T11:53:52.070Z,153301.69
2023-07-25T11:56:18.361Z,153364.00
2023-07-25T11:58:45.762Z,153388.19
2023-07-25T12:01:12.067Z,153308.03
2023-07-25T12:03:38.360Z,153217.63
2023-07-25T12:06:04.647Z,153126.06
2023-07-25T12:08:30.864Z,153078.97
2023-07-25T12:10:57.085Z,153009.03
2023-07-25T12:13:23.290Z,152958.16
2023-07-25T12:15:49.551Z,152870.47
2023-07-25T12:18:15.807Z,152850.13
2023-07-25T12:20:56.257Z,152825.94
2023-07-25T12:23:24.620Z,152724.31
2023-07-25T12:25:50.848Z,152688.69
2023-07-25T12:28:17.085Z,152655.66
2023-07-25T12:30:43.321Z,152669.66
2023-07-25T12:33:09.644Z,152637.88
2023-07-25T12:35:35.888Z,152635.34
2023-07-25T12:38:02.088Z,152670.91
2023-07-25T12:40:28.306Z,152677.25
2023-07-25T12:42:54.535Z,152682.31
2023-07-25T12:45:20.799Z,152639.16
2023-07-25T12:47:47.002Z,152646.75
2023-07-25T12:50:13.270Z,152670.91
2023-07-25T12:52:39.576Z,152635.34
2023-07-25T12:55:05.774Z,152660.72
2023-07-25T12:57:32.179Z,152665.78
2023-07-25T12:59:58.421Z,152691.22
2023-07-25T13:02:24.786Z,152719.22
2023-07-25T13:04:51.195Z,152794.16
2023-07-25T13:07:17.524Z,152818.34
2023-07-25T13:09:43.797Z,152875.53
2023-07-25T13:12:10.080Z,152886.97
2023-07-25T13:14:36.327Z,152893.31
2023-07-25T13:17:02.625Z,152850.13
2023-07-25T13:19:28.971Z,152822.16
2023-07-25T13:21:55.273Z,152819.63
2023-07-25T13:24:21.551Z,152796.75
2023-07-25T13:26:47.822Z,152764.97
2023-07-25T13:29:14.214Z,152756.03
2023-07-25T13:31:40.442Z,152759.91
2023-07-25T13:34:06.677Z,152726.84
2023-07-25T13:36:32.950Z,152675.97
2023-07-25T13:38:59.178Z,152683.59
2023-07-25T13:41:25.498Z,152655.66
2023-07-25T13:43:51.731Z,152609.91
2023-07-25T13:46:17.963Z,152604.84
2023-07-25T13:48:44.231Z,152615.03
2023-07-25T13:51:10.457Z,152631.50
2023-07-25T13:53:36.722Z,152592.13
2023-07-25T13:56:02.994Z,152603.59
2023-07-25T13:58:29.249Z,152562.94
2023-07-25T14:00:55.502Z,152566.75
2023-07-25T14:03:21.744Z,152540.06
2023-07-25T14:05:48.009Z,152554.03
2023-07-25T14:08:14.265Z,152578.19
2023-07-25T14:10:40.574Z,152565.47
2023-07-25T14:13:06.809Z,152547.69
2023-07-25T14:15:33.208Z,152524.84
2023-07-25T14:17:59.539Z,152528.66
2023-07-25T14:20:26.015Z,152521.00
2023-07-25T14:22:52.405Z,152518.47
2023-07-25T14:25:18.684Z,152565.47
2023-07-25T14:27:45.024Z,152589.59
2023-07-25T14:30:11.327Z,152615.03
2023-07-25T14:32:37.602Z,152642.94
2023-07-25T14:35:03.845Z,152598.50
2023-07-25T14:37:36.986Z,152636.59
2023-07-25T14:40:14.737Z,152677.25
2023-07-25T14:42:41.005Z,152688.69
2023-07-25T14:45:07.240Z,152672.19
2023-07-25T14:47:33.589Z,152716.66
2023-07-25T14:49:59.943Z,152750.97
2023-07-25T14:52:26.182Z,152773.84
2023-07-25T14:54:52.460Z,152811.94
2023-07-25T14:57:18.733Z,152833.59
2023-07-25T14:59:45.030Z,152824.69
2023-07-25T15:02:11.359Z,152850.13
2023-07-25T15:04:37.623Z,152908.59
2023-07-25T15:07:03.879Z,152914.91
2023-07-25T15:09:30.149Z,152922.56
2023-07-25T15:11:56.445Z,152866.66
2023-07-25T15:14:23.076Z,152823.41
2023-07-25T15:16:51.209Z,152811.94
2023-07-25T15:19:17.590Z,152803.09
2023-07-25T15:21:43.784Z,152673.44
2023-07-25T15:24:10.060Z,152662.00
2023-07-25T15:26:36.327Z,152662.00
2023-07-25T15:29:02.729Z,152606.13
2023-07-25T15:31:29.004Z,152552.78
2023-07-25T15:33:55.446Z,152542.63
2023-07-25T15:36:21.691Z,152508.34
2023-07-25T15:38:47.917Z,152505.81
2023-07-25T15:41:14.140Z,152509.63
2023-07-25T15:43:40.750Z,152503.22
2023-07-25T15:46:07.040Z,152485.47
2023-07-25T15:48:33.347Z,152481.66
2023-07-25T15:50:59.577Z,152455.03
2023-07-25T15:53:25.838Z,152452.50
2023-07-25T15:55:52.110Z,152430.88
2023-07-25T15:58:18.360Z,152424.53
2023-07-25T16:00:44.643Z,152432.13
2023-07-25T16:03:10.979Z,152451.22
2023-07-25T16:05:37.329Z,152463.88
2023-07-25T16:08:03.586Z,152480.38
2023-07-25T16:10:29.820Z,152496.91
2023-07-25T16:12:56.372Z,152482.94
2023-07-25T16:15:23.138Z,152427.06
2023-07-25T16:17:49.405Z,152409.28
2023-07-25T16:20:15.736Z,152428.34
2023-07-25T16:22:41.991Z,152381.34
2023-07-25T16:25:09.276Z,152372.44
2023-07-25T16:27:35.497Z,152385.16
2023-07-25T16:30:02.906Z,152350.88
2023-07-25T16:32:29.316Z,152340.69
2023-07-25T16:34:55.653Z,152388.94
2023-07-25T16:37:21.951Z,152415.69
2023-07-25T16:39:48.182Z,152438.50
2023-07-25T16:42:14.507Z,152430.88
2023-07-25T16:44:40.776Z,152457.56
2023-07-25T16:47:07.019Z,152476.59
2023-07-25T16:49:33.249Z,152517.22
2023-07-25T16:51:59.526Z,152557.84
2023-07-25T16:54:25.724Z,152576.88
2023-07-25T16:56:52.157Z,152587.06
2023-07-25T16:59:18.346Z,152597.25
2023-07-25T17:01:44.649Z,152659.47
2023-07-25T17:04:10.940Z,152631.50
2023-07-25T17:06:37.172Z,152672.19
2023-07-25T17:09:03.418Z,152678.50
2023-07-25T17:11:30.082Z,152716.66
2023-07-25T17:13:56.618Z,152674.72
2023-07-25T17:16:22.925Z,152707.81
2023-07-25T17:18:49.261Z,152730.66
2023-07-25T17:21:18.608Z,152777.69
2023-07-25T17:23:49.786Z,152771.31
2023-07-25T17:26:16.058Z,152790.38
2023-07-25T17:28:42.304Z,152789.09
2023-07-25T17:31:08.659Z,152799.28
2023-07-25T17:33:34.943Z,152759.91
2023-07-25T17:36:01.223Z,152744.66
2023-07-25T17:38:27.565Z,152747.19
2023-07-25T17:40:53.905Z,152678.50
2023-07-25T17:43:20.369Z,152639.16
2023-07-25T17:45:46.735Z,152587.06
2023-07-25T17:48:12.979Z,152616.28
2023-07-25T17:50:39.267Z,152529.94
2023-07-25T17:53:05.499Z,152513.41
2023-07-25T17:55:31.729Z,152523.59
2023-07-25T17:57:58.088Z,152481.66
2023-07-25T18:00:24.363Z,152444.84
2023-07-25T18:02:50.699Z,152416.94
2023-07-25T18:05:17.016Z,152416.94
2023-07-25T18:07:43.259Z,152405.44
2023-07-25T18:10:09.481Z,152378.81
2023-07-25T18:12:35.680Z,152359.72
2023-07-25T18:15:01.934Z,152391.47
2023-07-25T18:17:28.520Z,152378.81
2023-07-25T18:19:54.957Z,152395.28
2023-07-25T18:22:21.216Z,152437.25
2023-07-25T18:24:47.444Z,152444.84
2023-07-25T18:27:13.707Z,152424.53
2023-07-25T18:29:39.930Z,152456.28
2023-07-25T18:32:06.183Z,152468.94
2023-07-25T18:34:32.408Z,152489.31
2023-07-25T18:36:58.672Z,152496.91
2023-07-25T18:39:24.862Z,152503.22
2023-07-25T18:41:51.154Z,152510.88
2023-07-25T18:44:17.355Z,152517.22
2023-07-25T18:46:43.632Z,152533.72
2023-07-25T18:49:09.826Z,152526.13
2023-07-25T18:51:36.057Z,152546.44
2023-07-25T18:54:02.308Z,152554.03
2023-07-25T18:56:28.498Z,152582.00
2023-07-25T18:58:54.783Z,152571.81
2023-07-25T19:01:21.032Z,152546.44
2023-07-25T19:03:47.341Z,152537.53
2023-07-25T19:06:13.616Z,152547.69
2023-07-25T19:08:40.020Z,152531.19
2023-07-25T19:11:06.367Z,152494.38
2023-07-25T19:13:32.639Z,152435.97
2023-07-25T19:15:58.921Z,152442.31
2023-07-25T19:18:25.434Z,152380.06
2023-07-25T19:20:51.792Z,152387.69
2023-07-25T19:23:25.713Z,152378.81
2023-07-25T19:25:52.626Z,152341.97
2023-07-25T19:28:19.041Z,152335.63
2023-07-25T19:30:45.302Z,152348.34
2023-07-25T19:33:11.590Z,152320.38
2023-07-25T19:35:39.061Z,152325.50
2023-07-25T19:38:06.478Z,152309.00
2023-07-25T19:40:32.761Z,152322.94
2023-07-25T19:42:59.044Z,152326.78
2023-07-25T19:45:25.244Z,152300.09
2023-07-25T19:47:51.588Z,152283.59
2023-07-25T19:50:17.890Z,152301.38
2023-07-25T19:52:44.137Z,152311.53
2023-07-25T19:55:10.437Z,152301.38
2023-07-25T19:57:36.694Z,152297.56
2023-07-25T20:00:02.990Z,152283.59
2023-07-25T20:02:29.347Z,152264.56
2023-07-25T20:04:55.701Z,152241.72
2023-07-25T20:07:21.935Z,152243.00
2023-07-25T20:09:48.199Z,152249.31
2023-07-25T20:12:14.440Z,152248.06
2023-07-25T20:14:40.669Z,152225.22
2023-07-25T20:17:06.880Z,152211.28
2023-07-25T20:19:33.182Z,152207.47
2023-07-25T20:21:59.455Z,152203.69
2023-07-25T20:24:25.914Z,152184.66
2023-07-25T20:26:52.255Z,152199.88
2023-07-25T20:29:18.520Z,152198.63
2023-07-25T20:31:44.750Z,152210.00
2023-07-25T20:34:11.015Z,152202.41
2023-07-25T20:36:37.269Z,152208.75
2023-07-25T20:39:03.496Z,152202.41
2023-07-25T20:41:29.703Z,152194.78
2023-07-25T20:43:55.930Z,152199.88
2023-07-25T20:46:22.220Z,152174.47
2023-07-25T20:48:48.497Z,152170.69
2023-07-25T20:51:15.073Z,152170.69
2023-07-25T20:53:41.321Z,152123.72
2023-07-25T20:56:07.696Z,152119.94
2023-07-25T20:58:34.045Z,152103.44
2023-07-25T21:01:00.264Z,152090.75
2023-07-25T21:03:26.610Z,152086.91
2023-07-25T21:05:52.890Z,152072.97
2023-07-25T21:08:24.181Z,152059.03
2023-07-25T21:10:50.444Z,152078.03
2023-07-25T21:13:16.638Z,152074.25
2023-07-25T21:15:42.894Z,152092.00
2023-07-25T21:18:13.596Z,152065.34
2023-07-25T21:20:40.447Z,152048.84
2023-07-25T21:23:06.724Z,152038.75
2023-07-25T21:25:33.003Z,152036.22
2023-07-25T21:27:59.286Z,152037.47
2023-07-25T21:30:25.767Z,152015.88
2023-07-25T21:32:52.044Z,152034.91
2023-07-25T21:35:18.347Z,152024.78
2023-07-25T21:37:44.591Z,152028.56
2023-07-25T21:40:10.795Z,152005.75
2023-07-25T21:42:37.066Z,151986.75
2023-07-25T21:45:03.295Z,152021.00
2023-07-25T21:47:29.588Z,151993.06
2023-07-25T21:49:55.865Z,152005.75
2023-07-25T21:52:22.103Z,152026.03
2023-07-25T21:54:48.380Z,152021.00
2023-07-25T21:57:14.596Z,151998.13
2023-07-25T21:59:40.808Z,151986.75
2023-07-25T22:02:07.051Z,151988.00
2023-07-25T22:04:33.391Z,151982.94
2023-07-25T22:06:59.699Z,151977.84
2023-07-25T22:09:25.977Z,151995.59
2023-07-25T22:11:52.190Z,151972.78
2023-07-25T22:14:18.386Z,151972.78
2023-07-25T22:16:44.717Z,151996.88
2023-07-25T22:19:10.930Z,151986.75
2023-07-25T22:21:37.112Z,152009.56
2023-07-25T22:24:03.334Z,151972.78
2023-07-25T22:26:29.891Z,151979.13
2023-07-25T22:28:56.361Z,151990.53
2023-07-25T22:31:22.635Z,152012.09
2023-07-25T22:33:48.863Z,152036.22
2023-07-25T22:36:15.093Z,152023.53
2023-07-25T22:38:41.373Z,152013.34
2023-07-25T22:41:07.628Z,152018.47
2023-07-25T22:43:33.885Z,152022.25
2023-07-25T22:46:00.204Z,151995.59
2023-07-25T22:48:26.513Z,152019.72
2023-07-25T22:50:52.786Z,152014.63
2023-07-25T22:53:19.004Z,152027.31
2023-07-25T22:55:45.239Z,151982.94
2023-07-25T22:58:11.502Z,151934.75
2023-07-25T23:00:37.719Z,151949.97
2023-07-25T23:03:04.106Z,151905.59
2023-07-25T23:05:30.509Z,151879.00
2023-07-25T23:07:56.740Z,151856.19
2023-07-25T23:10:22.966Z,151829.53
2023-07-25T23:12:49.162Z,151802.97
2023-07-25T23:15:15.475Z,151795.31
2023-07-25T23:17:41.745Z,151806.75
2023-07-25T23:20:08.087Z,151795.31
2023-07-25T23:22:34.379Z,151800.38
2023-07-25T23:25:00.620Z,151790.25
2023-07-25T23:27:26.948Z,151810.53
2023-07-25T23:29:53.199Z,151813.06
2023-07-25T23:32:19.430Z,151804.22
2023-07-25T23:34:45.718Z,151828.28
2023-07-25T23:37:11.999Z,151814.31
2023-07-25T23:39:38.276Z,151814.31
2023-07-25T23:42:04.491Z,151809.28
2023-07-25T23:44:30.716Z,151828.28
2023-07-25T23:46:56.979Z,151857.44
2023-07-25T23:49:23.249Z,151866.31
2023-07-25T23:51:49.478Z,151828.28
2023-07-25T23:54:15.718Z,151842.22
2023-07-25T23:56:41.991Z,151820.69
2023-07-25T23:59:08.245Z,151830.81
